Terminal Aerodrome Forecast
Issued by NWS

Home | Current Version | Previous Version | Text Only | Print | Product List | Glossary On
Versions: 1 2 3 4 5 6 7 8 9 10 11 12 13 14 15
272
FTUS44 KMAF 010523
TAFINK
TAF
KINK 010523Z 0106/0206 09016G24KT P6SM SCT120
     FM011200 05017G25KT P6SM BKN035
      TEMPO 0112/0116 BKN025
     FM012000 03010KT P6SM OVC035=

USA.gov is the U.S. government's official web portal to all federal, state and local government web resources and services.